Ripley, Illinois
Current Conditions -  °F | °C
As of 2:55 AM on Thursday 23 Oct 2014 (Local Time) from KPPQ Reporting Station
Clear Clear  
Wind Chill: 42°   Ceiling: Unl
Heat Index: 45°   Visibility: 10mi
Dew Point: 39°   Wind: 5mph
Humidity: 82%   Direction: 140°SE
Pressure: 30.2"   Gusts: NA
Location:  39.9985°N, 90.6925°W
Report Text: KPPQ 230755Z AUTO 14004KT 10SM CLR 07/04 A3020 RMK AO2 T00700041
Loading
Personal Weather Stations






























Interactive Weather Map
Tropical Storm Tracking
New forecast layout! Learn more

10-Day Weather Forecast

Advertisements
Track Severe Weather on mobile